createdAt,value
2018-09-14T00:00:37.905Z,993.96
2018-09-14T00:01:37.905Z,993.95
2018-09-14T00:02:37.908Z,993.96
2018-09-14T00:03:37.906Z,993.94
2018-09-14T00:04:37.906Z,993.93
2018-09-14T00:05:37.903Z,993.97
2018-09-14T00:06:37.907Z,993.97
2018-09-14T00:07:37.905Z,993.95
2018-09-14T00:08:37.906Z,993.93
2018-09-14T00:09:37.907Z,993.92
2018-09-14T00:10:37.905Z,993.96
2018-09-14T00:11:37.907Z,993.96
2018-09-14T00:12:37.904Z,993.93
2018-09-14T00:13:37.905Z,993.96
2018-09-14T00:14:37.910Z,993.94
2018-09-14T00:15:37.913Z,993.94
2018-09-14T00:16:37.907Z,993.91
2018-09-14T00:17:37.910Z,993.94
2018-09-14T00:18:37.910Z,993.94
2018-09-14T00:19:37.933Z,993.93
2018-09-14T00:20:37.913Z,993.94
2018-09-14T00:21:37.913Z,993.9
2018-09-14T00:22:37.914Z,993.92
2018-09-14T00:23:37.910Z,993.94
2018-09-14T00:24:37.931Z,993.97
2018-09-14T00:25:37.920Z,993.97
2018-09-14T00:26:37.915Z,993.93
2018-09-14T00:27:37.905Z,993.91
2018-09-14T00:28:37.906Z,993.95
2018-09-14T00:29:37.902Z,993.95
2018-09-14T00:30:37.904Z,993.96
2018-09-14T00:31:37.911Z,993.97
2018-09-14T00:32:37.902Z,993.91
2018-09-14T00:33:37.905Z,993.93
2018-09-14T00:34:37.908Z,993.94
2018-09-14T00:35:37.904Z,993.93
2018-09-14T00:36:37.903Z,993.94
2018-09-14T00:37:37.905Z,993.91
2018-09-14T00:38:37.905Z,993.9
2018-09-14T00:39:37.906Z,993.9
2018-09-14T00:40:37.905Z,993.9
2018-09-14T00:41:37.901Z,993.89
2018-09-14T00:42:37.904Z,993.88
2018-09-14T00:43:37.910Z,993.88
2018-09-14T00:44:37.903Z,993.88
2018-09-14T00:45:37.904Z,993.91
2018-09-14T00:46:37.905Z,993.93
2018-09-14T00:47:37.911Z,993.9
2018-09-14T00:48:37.901Z,993.87
2018-09-14T00:49:37.903Z,993.88
2018-09-14T00:50:37.904Z,993.88
2018-09-14T00:51:37.900Z,993.86
2018-09-14T00:52:37.902Z,993.88
2018-09-14T00:53:37.906Z,993.89
2018-09-14T00:54:37.905Z,993.89
2018-09-14T00:55:37.902Z,993.91
2018-09-14T00:56:37.902Z,993.88
2018-09-14T00:57:37.904Z,993.87
2018-09-14T00:58:37.901Z,993.85
2018-09-14T00:59:37.906Z,993.89
2018-09-14T01:00:37.906Z,993.86
2018-09-14T01:01:37.900Z,993.84
2018-09-14T01:02:37.900Z,993.85
2018-09-14T01:03:37.899Z,993.84
2018-09-14T01:04:37.902Z,993.83
2018-09-14T01:05:37.899Z,993.87
2018-09-14T01:06:37.903Z,993.84
2018-09-14T01:07:37.901Z,993.83
2018-09-14T01:08:37.901Z,993.87
2018-09-14T01:09:37.899Z,993.86
2018-09-14T01:10:37.906Z,993.84
2018-09-14T01:11:37.898Z,993.87
2018-09-14T01:12:37.901Z,993.84
2018-09-14T01:13:37.900Z,993.89
2018-09-14T01:14:37.900Z,993.87
2018-09-14T01:15:37.900Z,993.88
2018-09-14T01:16:37.909Z,993.86
2018-09-14T01:17:37.899Z,993.91
2018-09-14T01:18:37.901Z,993.87
2018-09-14T01:19:37.917Z,993.84
2018-09-14T01:20:37.907Z,993.84
2018-09-14T01:21:37.900Z,993.84
2018-09-14T01:22:37.899Z,993.85
2018-09-14T01:23:37.903Z,993.82
2018-09-14T01:24:37.900Z,993.8
2018-09-14T01:25:37.906Z,993.79
2018-09-14T01:26:37.900Z,993.79
2018-09-14T01:27:37.900Z,993.75
2018-09-14T01:28:37.900Z,993.8
2018-09-14T01:29:37.906Z,993.78
2018-09-14T01:30:37.900Z,993.8
2018-09-14T01:31:37.899Z,993.75
2018-09-14T01:32:37.911Z,993.78
2018-09-14T01:33:37.901Z,993.75
2018-09-14T01:34:37.900Z,993.76
2018-09-14T01:35:37.899Z,993.73
2018-09-14T01:36:37.910Z,993.75
2018-09-14T01:37:37.902Z,993.69
2018-09-14T01:38:37.904Z,993.71
2018-09-14T01:39:37.900Z,993.72
2018-09-14T01:40:37.905Z,993.72
2018-09-14T01:41:37.904Z,993.71
2018-09-14T01:42:37.905Z,993.7
2018-09-14T01:43:37.913Z,993.72
2018-09-14T01:44:37.903Z,993.72
2018-09-14T01:45:37.905Z,993.75
2018-09-14T01:46:37.904Z,993.74
2018-09-14T01:47:37.906Z,993.75
2018-09-14T01:48:37.917Z,993.75
2018-09-14T01:49:37.906Z,993.77
2018-09-14T01:50:37.906Z,993.76
2018-09-14T01:51:37.910Z,993.76
2018-09-14T01:52:37.909Z,993.77
2018-09-14T01:53:37.915Z,993.72
2018-09-14T01:54:37.917Z,993.75
2018-09-14T01:55:37.913Z,993.75
2018-09-14T01:56:37.908Z,993.74
2018-09-14T01:57:37.908Z,993.7
2018-09-14T01:58:37.911Z,993.74
2018-09-14T01:59:37.911Z,993.71
2018-09-14T02:00:37.910Z,993.72
2018-09-14T02:01:37.925Z,993.7
2018-09-14T02:02:37.912Z,993.67
2018-09-14T02:03:37.915Z,993.66
2018-09-14T02:04:37.911Z,993.69
2018-09-14T02:05:37.913Z,993.67
2018-09-14T02:06:37.915Z,993.64
2018-09-14T02:07:37.915Z,993.65
2018-09-14T02:08:37.911Z,993.59
2018-09-14T02:09:37.916Z,993.62
2018-09-14T02:10:37.927Z,993.66
2018-09-14T02:11:37.923Z,993.6
2018-09-14T02:12:37.915Z,993.62
2018-09-14T02:13:37.920Z,993.6
2018-09-14T02:14:37.916Z,993.64
2018-09-14T02:15:37.918Z,993.57
2018-09-14T02:16:37.916Z,993.62
2018-09-14T02:17:37.915Z,993.57
2018-09-14T02:18:37.920Z,993.59
2018-09-14T02:19:37.916Z,993.61
2018-09-14T02:20:37.916Z,993.57
2018-09-14T02:21:37.917Z,993.59
2018-09-14T02:22:37.917Z,993.54
2018-09-14T02:23:37.917Z,993.54
2018-09-14T02:24:37.918Z,993.5
2018-09-14T02:25:38.000Z,993.54
2018-09-14T02:26:37.925Z,993.49
2018-09-14T02:27:37.926Z,993.51
2018-09-14T02:28:37.920Z,993.52
2018-09-14T02:29:37.919Z,993.48
2018-09-14T02:30:37.926Z,993.51
2018-09-14T02:31:37.923Z,993.47
2018-09-14T02:32:37.922Z,993.48
2018-09-14T02:33:37.920Z,993.49
2018-09-14T02:34:37.926Z,993.44
2018-09-14T02:35:37.928Z,993.45
2018-09-14T02:36:37.925Z,993.47
2018-09-14T02:37:37.924Z,993.44
2018-09-14T02:38:37.936Z,993.43
2018-09-14T02:39:37.960Z,993.44
2018-09-14T02:40:37.924Z,993.44
2018-09-14T02:41:37.924Z,993.44
2018-09-14T02:42:37.927Z,993.4
2018-09-14T02:43:37.927Z,993.42
2018-09-14T02:44:37.927Z,993.42
2018-09-14T02:45:37.927Z,993.47
2018-09-14T02:46:37.929Z,993.42
2018-09-14T02:47:37.929Z,993.46
2018-09-14T02:48:37.930Z,993.44
2018-09-14T02:49:37.929Z,993.48
2018-09-14T02:50:37.933Z,993.47
2018-09-14T02:51:37.928Z,993.51
2018-09-14T02:52:37.930Z,993.48
2018-09-14T02:53:37.930Z,993.52
2018-09-14T02:54:37.935Z,993.48
2018-09-14T02:55:37.932Z,993.51
2018-09-14T02:56:37.931Z,993.46
2018-09-14T02:57:37.931Z,993.49
2018-09-14T02:58:37.933Z,993.47
2018-09-14T02:59:37.938Z,993.47
2018-09-14T03:00:37.937Z,993.47
2018-09-14T03:01:37.932Z,993.46
2018-09-14T03:02:37.942Z,993.43
2018-09-14T03:03:37.936Z,993.4
2018-09-14T03:04:37.935Z,993.41
2018-09-14T03:05:37.935Z,993.39
2018-09-14T03:06:37.938Z,993.42
2018-09-14T03:07:37.933Z,993.4
2018-09-14T03:08:37.940Z,993.41
2018-09-14T03:09:37.938Z,993.44
2018-09-14T03:10:37.937Z,993.43
2018-09-14T03:11:37.944Z,993.4
2018-09-14T03:12:37.937Z,993.45
2018-09-14T03:13:37.937Z,993.41
2018-09-14T03:14:37.938Z,993.42
2018-09-14T03:15:37.941Z,993.38
2018-09-14T03:16:37.942Z,993.43
2018-09-14T03:17:37.944Z,993.45
2018-09-14T03:18:37.942Z,993.44
2018-09-14T03:19:37.944Z,993.44
2018-09-14T03:20:37.940Z,993.46
2018-09-14T03:21:37.938Z,993.47
2018-09-14T03:22:37.940Z,993.45
2018-09-14T03:23:37.952Z,993.47
2018-09-14T03:24:37.943Z,993.45
2018-09-14T03:25:37.943Z,993.46
2018-09-14T03:26:37.946Z,993.43
2018-09-14T03:27:37.943Z,993.45
2018-09-14T03:28:37.943Z,993.4
2018-09-14T03:29:37.946Z,993.45
2018-09-14T03:30:37.956Z,993.4
2018-09-14T03:31:37.948Z,993.43
2018-09-14T03:32:37.946Z,993.4
2018-09-14T03:33:37.947Z,993.44
2018-09-14T03:34:37.954Z,993.46
2018-09-14T03:35:37.946Z,993.44
2018-09-14T03:36:37.948Z,993.43
2018-09-14T03:37:37.947Z,993.45
2018-09-14T03:38:37.950Z,993.43
2018-09-14T03:39:37.951Z,993.47
2018-09-14T03:40:37.946Z,993.47
2018-09-14T03:41:37.957Z,993.49
2018-09-14T03:42:37.948Z,993.53
2018-09-14T03:43:37.949Z,993.49
2018-09-14T03:44:37.949Z,993.52
2018-09-14T03:45:37.951Z,993.5
2018-09-14T03:46:37.949Z,993.52
2018-09-14T03:47:37.957Z,993.49
2018-09-14T03:48:37.958Z,993.51
2018-09-14T03:49:37.950Z,993.51
2018-09-14T03:50:37.951Z,993.5
2018-09-14T03:51:37.955Z,993.51
2018-09-14T03:52:37.951Z,993.5
2018-09-14T03:53:37.952Z,993.45
2018-09-14T03:54:37.953Z,993.51
2018-09-14T03:55:37.951Z,993.49
2018-09-14T03:56:37.957Z,993.5
2018-09-14T03:57:37.970Z,993.51
2018-09-14T03:58:37.951Z,993.48
2018-09-14T03:59:37.959Z,993.49
2018-09-14T04:00:37.954Z,993.46
2018-09-14T04:01:37.953Z,993.46
2018-09-14T04:02:37.956Z,993.47
2018-09-14T04:03:37.954Z,993.47
2018-09-14T04:04:37.954Z,993.51
2018-09-14T04:05:37.954Z,993.43
2018-09-14T04:06:37.954Z,993.48
2018-09-14T04:07:37.960Z,993.47
2018-09-14T04:08:37.957Z,993.44
2018-09-14T04:09:37.958Z,993.46
2018-09-14T04:10:37.972Z,993.48
2018-09-14T04:11:37.958Z,993.48
2018-09-14T04:12:37.982Z,993.52
2018-09-14T04:13:37.956Z,993.46
2018-09-14T04:14:37.961Z,993.49
2018-09-14T04:15:38.076Z,993.49
2018-09-14T04:16:37.956Z,993.47
2018-09-14T04:17:37.958Z,993.42
2018-09-14T04:18:37.965Z,993.49
2018-09-14T04:19:37.960Z,993.46
2018-09-14T04:20:37.962Z,993.46
2018-09-14T04:21:37.962Z,993.51
2018-09-14T04:22:37.961Z,993.43
2018-09-14T04:23:38.115Z,993.42
2018-09-14T04:24:37.967Z,993.45
2018-09-14T04:25:37.965Z,993.45
2018-09-14T04:26:37.962Z,993.46
2018-09-14T04:27:37.963Z,993.49
2018-09-14T04:28:37.967Z,993.44
2018-09-14T04:29:37.963Z,993.49
2018-09-14T04:30:37.963Z,993.51
2018-09-14T04:31:37.965Z,993.5
2018-09-14T04:32:37.966Z,993.47
2018-09-14T04:33:37.967Z,993.51
2018-09-14T04:34:37.972Z,993.51
2018-09-14T04:35:37.966Z,993.5
2018-09-14T04:36:37.965Z,993.5
2018-09-14T04:37:37.966Z,993.5
2018-09-14T04:38:38.043Z,993.5
2018-09-14T04:39:37.967Z,993.46
2018-09-14T04:40:37.966Z,993.5
2018-09-14T04:41:37.967Z,993.52
2018-09-14T04:42:37.968Z,993.5
2018-09-14T04:43:37.971Z,993.5
2018-09-14T04:44:37.967Z,993.51
2018-09-14T04:45:37.969Z,993.51
2018-09-14T04:46:37.970Z,993.51
2018-09-14T04:47:37.993Z,993.52
2018-09-14T04:48:37.979Z,993.51
2018-09-14T04:49:37.968Z,993.54
2018-09-14T04:50:37.968Z,993.55
2018-09-14T04:51:37.972Z,993.52
2018-09-14T04:52:37.979Z,993.55
2018-09-14T04:53:37.992Z,993.57
2018-09-14T04:54:37.972Z,993.56
2018-09-14T04:55:37.989Z,993.59
2018-09-14T04:56:37.984Z,993.54
2018-09-14T04:57:37.969Z,993.58
2018-09-14T04:58:37.970Z,993.61
2018-09-14T04:59:37.970Z,993.61
2018-09-14T05:00:37.972Z,993.6
2018-09-14T05:01:37.976Z,993.58
2018-09-14T05:02:37.974Z,993.59
2018-09-14T05:03:37.969Z,993.61
2018-09-14T05:04:37.966Z,993.61
2018-09-14T05:05:37.968Z,993.61
2018-09-14T05:06:37.973Z,993.61
2018-09-14T05:07:38.043Z,993.62
2018-09-14T05:08:37.973Z,993.63
2018-09-14T05:09:37.974Z,993.66
2018-09-14T05:10:37.976Z,993.66
2018-09-14T05:11:37.988Z,993.67
2018-09-14T05:12:37.982Z,993.71
2018-09-14T05:13:37.980Z,993.72
2018-09-14T05:14:37.976Z,993.76
2018-09-14T05:15:37.978Z,993.7
2018-09-14T05:16:37.981Z,993.78
2018-09-14T05:17:37.973Z,993.79
2018-09-14T05:18:37.979Z,993.77
2018-09-14T05:19:37.978Z,993.77
2018-09-14T05:20:37.977Z,993.77
2018-09-14T05:21:37.976Z,993.78
2018-09-14T05:22:37.979Z,993.73
2018-09-14T05:23:37.977Z,993.76
2018-09-14T05:24:38.046Z,993.79
2018-09-14T05:25:37.977Z,993.73
2018-09-14T05:26:37.979Z,993.76
2018-09-14T05:27:37.979Z,993.76
2018-09-14T05:28:37.977Z,993.8
2018-09-14T05:29:37.978Z,993.81
2018-09-14T05:30:37.979Z,993.81
2018-09-14T05:31:37.979Z,993.8
2018-09-14T05:32:37.977Z,993.79
2018-09-14T05:33:37.979Z,993.76
2018-09-14T05:34:37.981Z,993.77
2018-09-14T05:35:37.982Z,993.8
2018-09-14T05:36:38.021Z,993.79
2018-09-14T05:37:37.984Z,993.84
2018-09-14T05:38:37.984Z,993.83
2018-09-14T05:39:37.982Z,993.84
2018-09-14T05:40:37.981Z,993.85
2018-09-14T05:41:37.981Z,993.85
2018-09-14T05:42:37.982Z,993.86
2018-09-14T05:43:37.995Z,993.9
2018-09-14T05:44:37.988Z,993.84
2018-09-14T05:45:37.997Z,993.83
2018-09-14T05:46:37.989Z,993.9
2018-09-14T05:47:37.985Z,993.87
2018-09-14T05:48:38.043Z,993.89
2018-09-14T05:49:37.987Z,993.93
2018-09-14T05:50:37.986Z,993.92
2018-09-14T05:51:37.987Z,993.94
2018-09-14T05:52:37.989Z,993.96
2018-09-14T05:53:37.991Z,993.98
2018-09-14T05:54:38.110Z,993.99
2018-09-14T05:55:37.989Z,994
2018-09-14T05:56:37.990Z,994.01
2018-09-14T05:57:37.993Z,994.03
2018-09-14T05:58:37.989Z,994.04
2018-09-14T05:59:38.001Z,994.1
2018-09-14T06:00:37.990Z,994.1
2018-09-14T06:01:37.996Z,994.1
2018-09-14T06:02:37.990Z,994.09
2018-09-14T06:03:38.043Z,994.14
2018-09-14T06:04:37.995Z,994.11
2018-09-14T06:05:37.996Z,994.14
2018-09-14T06:06:38.057Z,994.12
2018-09-14T06:07:37.997Z,994.15
2018-09-14T06:08:37.997Z,994.15
2018-09-14T06:09:38.001Z,994.17
2018-09-14T06:10:37.999Z,994.12
2018-09-14T06:11:37.999Z,994.14
2018-09-14T06:12:37.998Z,994.11
2018-09-14T06:13:38.214Z,994.15
2018-09-14T06:14:37.998Z,994.13
2018-09-14T06:15:37.999Z,994.13
2018-09-14T06:16:38.004Z,994.15
2018-09-14T06:17:38.003Z,994.17
2018-09-14T06:18:38.003Z,994.21
2018-09-14T06:19:38.001Z,994.2
2018-09-14T06:20:38.002Z,994.23
2018-09-14T06:21:38.002Z,994.26
2018-09-14T06:22:38.024Z,994.24
2018-09-14T06:23:38.014Z,994.28
2018-09-14T06:24:38.004Z,994.25
2018-09-14T06:25:38.002Z,994.28
2018-09-14T06:26:38.005Z,994.29
2018-09-14T06:27:38.004Z,994.25
2018-09-14T06:28:38.007Z,994.25
2018-09-14T06:29:38.005Z,994.23
2018-09-14T06:30:38.008Z,994.25
2018-09-14T06:31:38.006Z,994.23
2018-09-14T06:32:38.006Z,994.21
2018-09-14T06:33:38.022Z,994.24
2018-09-14T06:34:38.016Z,994.25
2018-09-14T06:35:38.008Z,994.23
2018-09-14T06:36:38.012Z,994.26
2018-09-14T06:37:38.011Z,994.26
2018-09-14T06:38:38.014Z,994.22
2018-09-14T06:39:38.064Z,994.25
2018-09-14T06:40:38.013Z,994.3
2018-09-14T06:41:44.356Z,994.28
2018-09-14T06:42:38.054Z,994.29
2018-09-14T06:43:38.082Z,994.24
2018-09-14T06:44:38.062Z,994.24
2018-09-14T06:45:38.078Z,994.29
2018-09-14T06:46:38.018Z,994.24
2018-09-14T06:47:38.020Z,994.27
2018-09-14T06:48:38.024Z,994.25
2018-09-14T06:49:38.020Z,994.24
2018-09-14T06:50:38.018Z,994.21
2018-09-14T06:51:38.021Z,994.22
2018-09-14T06:52:38.021Z,994.25
2018-09-14T06:53:38.023Z,994.21
2018-09-14T06:54:38.023Z,994.23
2018-09-14T06:55:38.024Z,994.23
2018-09-14T06:56:38.032Z,994.24
2018-09-14T06:57:38.026Z,994.21
2018-09-14T06:58:38.025Z,994.18
2018-09-14T06:59:38.025Z,994.19
2018-09-14T07:00:38.028Z,994.21
2018-09-14T07:01:38.043Z,994.17
2018-09-14T07:02:38.031Z,994.19
2018-09-14T07:03:38.031Z,994.22
2018-09-14T07:04:38.030Z,994.23
2018-09-14T07:05:38.033Z,994.2
2018-09-14T07:06:38.036Z,994.23
2018-09-14T07:07:38.033Z,994.26
2018-09-14T07:08:38.033Z,994.26
2018-09-14T07:09:38.035Z,994.21
2018-09-14T07:10:38.041Z,994.24
2018-09-14T07:11:38.043Z,994.25
2018-09-14T07:12:38.040Z,994.26
2018-09-14T07:13:38.043Z,994.27
2018-09-14T07:14:38.046Z,994.28
2018-09-14T07:15:38.044Z,994.35
2018-09-14T07:16:38.047Z,994.32
2018-09-14T07:17:38.050Z,994.32
2018-09-14T07:18:38.048Z,994.29
2018-09-14T07:19:38.051Z,994.31
2018-09-14T07:20:38.058Z,994.33
2018-09-14T07:21:38.101Z,994.29
2018-09-14T07:22:38.057Z,994.3
2018-09-14T07:23:38.060Z,994.26
2018-09-14T07:24:38.272Z,994.25
2018-09-14T07:25:38.070Z,994.24
2018-09-14T07:26:38.078Z,994.29
2018-09-14T07:27:38.104Z,994.32
2018-09-14T07:28:38.072Z,994.3
2018-09-14T07:29:38.083Z,994.31
2018-09-14T07:30:38.084Z,994.32
2018-09-14T07:31:38.203Z,994.36
2018-09-14T07:32:38.075Z,994.39
2018-09-14T07:33:38.076Z,994.39
2018-09-14T07:34:38.078Z,994.39
2018-09-14T07:35:38.079Z,994.38
2018-09-14T07:36:38.343Z,994.41
2018-09-14T07:37:38.084Z,994.45
2018-09-14T07:38:38.085Z,994.45
2018-09-14T07:39:38.090Z,994.47
2018-09-14T07:40:38.091Z,994.44
2018-09-14T07:41:38.087Z,994.48
2018-09-14T07:42:38.215Z,994.49
2018-09-14T07:43:38.093Z,994.48
2018-09-14T07:44:38.093Z,994.51
2018-09-14T07:45:38.093Z,994.5
2018-09-14T07:46:38.096Z,994.51
2018-09-14T07:47:38.097Z,994.49
2018-09-14T07:48:38.102Z,994.47
2018-09-14T07:49:38.102Z,994.5
2018-09-14T07:50:38.103Z,994.51
2018-09-14T07:51:38.104Z,994.53
2018-09-14T07:52:38.102Z,994.54
2018-09-14T07:53:38.103Z,994.56
2018-09-14T07:54:38.113Z,994.57
2018-09-14T07:55:38.124Z,994.59
2018-09-14T07:56:38.111Z,994.61
2018-09-14T07:57:38.111Z,994.6
2018-09-14T07:58:38.122Z,994.58
2018-09-14T07:59:38.113Z,994.57
2018-09-14T08:00:38.148Z,994.56
2018-09-14T08:01:38.116Z,994.58
2018-09-14T08:02:38.113Z,994.56
2018-09-14T08:03:38.116Z,994.59
2018-09-14T08:04:38.141Z,994.54
2018-09-14T08:05:38.192Z,994.56
2018-09-14T08:06:38.180Z,994.58
2018-09-14T08:07:38.122Z,994.59
2018-09-14T08:08:38.125Z,994.6
2018-09-14T08:09:38.149Z,994.61
2018-09-14T08:10:38.124Z,994.64
2018-09-14T08:11:38.128Z,994.65
2018-09-14T08:12:38.128Z,994.7
2018-09-14T08:13:38.139Z,994.69
2018-09-14T08:14:38.128Z,994.7
2018-09-14T08:15:38.130Z,994.71
2018-09-14T08:16:38.135Z,994.71
2018-09-14T08:17:38.139Z,994.72
2018-09-14T08:18:38.137Z,994.7
2018-09-14T08:19:38.139Z,994.75
2018-09-14T08:20:38.138Z,994.71
2018-09-14T08:21:38.244Z,994.77
2018-09-14T08:22:38.145Z,994.77
2018-09-14T08:23:38.161Z,994.78
2018-09-14T08:24:38.149Z,994.78
2018-09-14T08:25:38.150Z,994.74
2018-09-14T08:26:38.207Z,994.77
2018-09-14T08:27:38.153Z,994.77
2018-09-14T08:28:38.155Z,994.81
2018-09-14T08:29:38.153Z,994.8
2018-09-14T08:30:38.163Z,994.82
2018-09-14T08:31:38.158Z,994.83
2018-09-14T08:32:38.158Z,994.89
2018-09-14T08:33:38.165Z,994.92
2018-09-14T08:34:38.165Z,994.92
2018-09-14T08:35:38.169Z,994.9
2018-09-14T08:36:38.168Z,994.92
2018-09-14T08:37:38.234Z,994.96
2018-09-14T08:38:38.180Z,994.95
2018-09-14T08:39:38.197Z,994.97
2018-09-14T08:40:38.178Z,994.95
2018-09-14T08:41:38.178Z,994.9
2018-09-14T08:42:38.184Z,994.92
2018-09-14T08:43:38.183Z,994.92
2018-09-14T08:44:38.193Z,994.87
2018-09-14T08:45:38.187Z,994.81
2018-09-14T08:46:38.197Z,994.8
2018-09-14T08:47:38.226Z,994.78
2018-09-14T08:48:38.212Z,994.83
2018-09-14T08:49:39.000Z,994.8
2018-09-14T08:50:38.202Z,994.86
2018-09-14T08:51:38.204Z,994.87
2018-09-14T08:52:38.209Z,994.91
2018-09-14T08:53:38.250Z,994.91
2018-09-14T08:54:38.205Z,994.94
2018-09-14T08:55:38.224Z,994.96
2018-09-14T08:56:38.223Z,994.94
2018-09-14T08:57:38.233Z,994.98
2018-09-14T08:58:38.223Z,994.98
2018-09-14T08:59:38.223Z,995
2018-09-14T09:00:38.255Z,994.99
2018-09-14T09:01:38.232Z,995
2018-09-14T09:02:38.250Z,995
2018-09-14T09:03:38.238Z,995
2018-09-14T09:04:38.238Z,994.99
2018-09-14T09:05:38.242Z,995
2018-09-14T09:06:38.241Z,994.99
2018-09-14T09:07:38.244Z,995.02
2018-09-14T09:08:38.246Z,995.03
2018-09-14T09:09:38.251Z,995.03
2018-09-14T09:10:38.256Z,995.06
2018-09-14T09:11:38.260Z,995.03
2018-09-14T09:12:38.261Z,995.08
2018-09-14T09:13:38.260Z,995.11
2018-09-14T09:14:38.262Z,995.12
2018-09-14T09:15:38.265Z,995.17
2018-09-14T09:16:38.269Z,995.12
2018-09-14T09:17:38.314Z,995.12
2018-09-14T09:18:38.285Z,995.1
2018-09-14T09:19:38.276Z,995.17
2018-09-14T09:20:38.287Z,995.14
2018-09-14T09:21:38.291Z,995.13
2018-09-14T09:22:38.305Z,995.14
2018-09-14T09:23:38.295Z,995.14
2018-09-14T09:24:38.294Z,995.12
2018-09-14T09:25:38.298Z,995.13
2018-09-14T09:26:38.299Z,995.13
2018-09-14T09:27:38.303Z,995.12
2018-09-14T09:28:38.314Z,995.18
2018-09-14T09:29:38.312Z,995.14
2018-09-14T09:30:38.314Z,995.16
2018-09-14T09:31:38.317Z,995.12
2018-09-14T09:32:38.326Z,995.14
2018-09-14T09:33:38.324Z,995.1
2018-09-14T09:34:38.332Z,995.09
2018-09-14T09:35:38.332Z,995.12
2018-09-14T09:36:38.335Z,995.08
2018-09-14T09:37:38.344Z,995.12
2018-09-14T09:38:38.342Z,995.14
2018-09-14T09:39:38.348Z,995.08
2018-09-14T09:40:38.358Z,995.09
2018-09-14T09:41:38.360Z,995.1
2018-09-14T09:42:38.364Z,995.09
2018-09-14T09:43:38.605Z,995.08
2018-09-14T09:44:38.363Z,995.03
2018-09-14T09:45:38.365Z,995.06
2018-09-14T09:46:38.373Z,995.05
2018-09-14T09:47:38.378Z,994.98
2018-09-14T09:48:38.382Z,994.98
2018-09-14T09:49:38.390Z,994.98
2018-09-14T09:50:38.398Z,994.98
2018-09-14T09:51:38.396Z,995.01
2018-09-14T09:52:38.395Z,995.01
2018-09-14T09:53:38.398Z,995.02
2018-09-14T09:54:38.403Z,995.02
2018-09-14T09:55:38.411Z,995
2018-09-14T09:56:38.431Z,994.99
2018-09-14T09:57:38.410Z,994.97
2018-09-14T09:58:38.416Z,994.98
2018-09-14T09:59:38.428Z,994.99
2018-09-14T10:00:38.425Z,994.97
2018-09-14T10:01:38.424Z,994.97
2018-09-14T10:02:38.473Z,994.96
2018-09-14T10:03:38.473Z,994.95
2018-09-14T10:04:38.436Z,994.97
2018-09-14T10:05:38.440Z,994.95
2018-09-14T10:06:38.442Z,995.01
2018-09-14T10:07:38.447Z,995
2018-09-14T10:08:38.459Z,994.97
2018-09-14T10:09:38.463Z,994.99
2018-09-14T10:10:38.464Z,994.97
2018-09-14T10:11:38.466Z,994.99
2018-09-14T10:12:38.466Z,994.92
2018-09-14T10:13:38.466Z,994.86
2018-09-14T10:14:38.470Z,994.92
2018-09-14T10:15:38.475Z,994.91
2018-09-14T10:16:38.480Z,994.9
2018-09-14T10:17:38.483Z,994.88
2018-09-14T10:18:38.489Z,994.93
2018-09-14T10:19:38.486Z,994.94
2018-09-14T10:20:38.525Z,994.95
2018-09-14T10:21:38.502Z,994.97
2018-09-14T10:22:38.497Z,995
2018-09-14T10:23:38.504Z,995.02
2018-09-14T10:24:38.505Z,995.05
2018-09-14T10:25:38.511Z,995.03
2018-09-14T10:26:38.535Z,995.05
2018-09-14T10:27:38.517Z,995.05
2018-09-14T10:28:38.538Z,995.06
2018-09-14T10:29:38.532Z,995.04
2018-09-14T10:30:38.537Z,995.06
2018-09-14T10:31:38.537Z,995.05
2018-09-14T10:32:38.538Z,995.06
2018-09-14T10:33:38.541Z,995.07
2018-09-14T10:34:38.538Z,995.06
2018-09-14T10:35:38.552Z,995.06
2018-09-14T10:36:38.560Z,995.07
2018-09-14T10:37:38.550Z,995.08
2018-09-14T10:38:38.555Z,995.06
2018-09-14T10:39:38.558Z,995.09
2018-09-14T10:40:38.574Z,995.07
2018-09-14T10:41:38.565Z,995.04
2018-09-14T10:42:38.617Z,995.05
2018-09-14T10:43:38.577Z,995.06
2018-09-14T10:44:38.585Z,995.04
2018-09-14T10:45:38.593Z,995
2018-09-14T10:46:38.585Z,995
2018-09-14T10:47:38.596Z,995.01
2018-09-14T10:48:38.631Z,994.93
2018-09-14T10:49:38.618Z,994.92
2018-09-14T10:50:38.612Z,994.93
2018-09-14T10:51:38.600Z,994.93
2018-09-14T10:52:38.605Z,994.88
2018-09-14T10:53:38.624Z,994.89
2018-09-14T10:54:38.637Z,994.91
2018-09-14T10:55:38.624Z,994.87
2018-09-14T10:56:38.624Z,994.87
2018-09-14T10:57:38.623Z,994.83
2018-09-14T10:58:38.644Z,994.79
2018-09-14T10:59:38.654Z,994.76
2018-09-14T11:00:38.652Z,994.76
2018-09-14T11:01:38.657Z,994.75
2018-09-14T11:02:38.655Z,994.71
2018-09-14T11:03:38.678Z,994.73
2018-09-14T11:04:38.656Z,994.68
2018-09-14T11:05:38.661Z,994.71
2018-09-14T11:06:38.684Z,994.7
2018-09-14T11:07:38.668Z,994.75
2018-09-14T11:08:38.681Z,994.77
2018-09-14T11:09:38.677Z,994.78
2018-09-14T11:10:38.680Z,994.8
2018-09-14T11:11:38.683Z,994.71
2018-09-14T11:12:38.762Z,994.74
2018-09-14T11:13:38.697Z,994.71
2018-09-14T11:14:38.697Z,994.77
2018-09-14T11:15:38.708Z,994.75
2018-09-14T11:16:38.708Z,994.76
2018-09-14T11:17:38.706Z,994.75
2018-09-14T11:18:38.737Z,994.76
2018-09-14T11:19:38.727Z,994.71
2018-09-14T11:20:38.781Z,994.72
2018-09-14T11:21:38.729Z,994.69
2018-09-14T11:22:38.728Z,994.68
2018-09-14T11:23:39.091Z,994.64
2018-09-14T11:24:38.824Z,994.65
2018-09-14T11:25:38.741Z,994.62
2018-09-14T11:26:38.744Z,994.72
2018-09-14T11:27:38.751Z,994.63
2018-09-14T11:28:38.750Z,994.64
2018-09-14T11:29:38.756Z,994.64
2018-09-14T11:30:38.757Z,994.62
2018-09-14T11:31:38.764Z,994.67
2018-09-14T11:32:38.769Z,994.6
2018-09-14T11:33:38.772Z,994.65
2018-09-14T11:34:38.777Z,994.64
2018-09-14T11:35:38.783Z,994.61
2018-09-14T11:36:38.786Z,994.61
2018-09-14T11:37:38.815Z,994.6
2018-09-14T11:38:38.901Z,994.57
2018-09-14T11:39:38.796Z,994.58
2018-09-14T11:40:38.808Z,994.58
2018-09-14T11:41:38.806Z,994.56
2018-09-14T11:42:38.809Z,994.56
2018-09-14T11:43:38.820Z,994.57
2018-09-14T11:44:38.819Z,994.52
2018-09-14T11:45:38.826Z,994.55
2018-09-14T11:46:38.825Z,994.51
2018-09-14T11:47:38.831Z,994.53
2018-09-14T11:48:38.830Z,994.5
2018-09-14T11:49:38.841Z,994.47
2018-09-14T11:50:38.839Z,994.47
2018-09-14T11:51:38.845Z,994.45
2018-09-14T11:52:38.849Z,994.45
2018-09-14T11:53:38.851Z,994.39
2018-09-14T11:54:38.857Z,994.41
2018-09-14T11:55:38.863Z,994.39
2018-09-14T11:56:38.867Z,994.35
2018-09-14T11:57:38.882Z,994.36
2018-09-14T11:58:38.888Z,994.34
2018-09-14T11:59:38.892Z,994.32
2018-09-14T12:00:38.875Z,994.34
2018-09-14T12:01:38.886Z,994.34
2018-09-14T12:02:38.886Z,994.34
2018-09-14T12:03:38.885Z,994.32
2018-09-14T12:04:38.905Z,994.35
2018-09-14T12:05:38.895Z,994.31
2018-09-14T12:06:38.897Z,994.36
2018-09-14T12:07:38.905Z,994.32
2018-09-14T12:08:38.905Z,994.35
2018-09-14T12:09:38.909Z,994.32
2018-09-14T12:10:38.912Z,994.36
2018-09-14T12:11:39.005Z,994.35
2018-09-14T12:12:38.923Z,994.38
2018-09-14T12:13:38.964Z,994.39
2018-09-14T12:14:38.927Z,994.4
2018-09-14T12:15:38.930Z,994.41
2018-09-14T12:16:38.932Z,994.38
2018-09-14T12:17:38.935Z,994.36
2018-09-14T12:18:38.943Z,994.35
2018-09-14T12:19:38.945Z,994.37
2018-09-14T12:20:39.758Z,994.36
2018-09-14T12:21:38.951Z,994.3
2018-09-14T12:22:38.962Z,994.28
2018-09-14T12:23:38.960Z,994.27
2018-09-14T12:24:38.960Z,994.3
2018-09-14T12:25:38.964Z,994.28
2018-09-14T12:26:38.968Z,994.23
2018-09-14T12:27:38.970Z,994.21
2018-09-14T12:28:38.976Z,994.22
2018-09-14T12:29:38.977Z,994.2
2018-09-14T12:30:38.987Z,994.17
2018-09-14T12:31:38.986Z,994.23